Lizella, Georgia
Current Conditions -  °F | °C
As of 4:53 AM on Monday 22 Dec 2014 (Local Time) from KMCN Reporting Station
Haze Haze  
Wind Chill: 44°   Ceiling: 400
Heat Index: 47°   Visibility: 2.5mi
Dew Point: 47°   Wind: 6mph
Humidity: 100%   Direction: 80°E
Pressure: 30.03"   Gusts: NA
Location:  32.81°N, 83.82°W
Report Text: KMCN 220953Z AUTO 08005KT 2 1/2SM BR OVC004 08/08 A3003 RMK AO2 SLP167 T00830083 TSNO $
Loading
Personal Weather Stations






























Interactive Weather Map New forecast layout! Learn more

10-Day Weather Forecast

Advertisements
Track Severe Weather on mobile